createdAt,value
2019-03-26T00:02:19.928Z,6.27
2019-03-26T00:05:23.283Z,5.80
2019-03-26T00:08:26.593Z,5.33
2019-03-26T00:11:29.899Z,5.00
2019-03-26T00:14:33.177Z,5.10
2019-03-26T00:17:36.468Z,5.43
2019-03-26T00:20:39.767Z,5.20
2019-03-26T00:23:43.075Z,5.10
2019-03-26T00:26:46.367Z,5.63
2019-03-26T00:29:49.657Z,5.23
2019-03-26T00:32:53.037Z,4.90
2019-03-26T00:35:56.337Z,5.00
2019-03-26T00:38:59.644Z,5.10
2019-03-26T00:42:02.934Z,5.53
2019-03-26T00:45:07.122Z,5.00
2019-03-26T00:48:10.420Z,5.30
2019-03-26T00:51:13.706Z,5.43
2019-03-26T00:54:17.006Z,4.83
2019-03-26T00:57:20.308Z,5.57
2019-03-26T01:00:35.820Z,5.17
2019-03-26T01:03:39.124Z,5.23
2019-03-26T01:06:42.490Z,5.20
2019-03-26T01:09:45.800Z,5.70
2019-03-26T01:12:49.164Z,5.63
2019-03-26T01:15:52.460Z,5.47
2019-03-26T01:18:55.760Z,6.00
2019-03-26T01:21:59.089Z,5.87
2019-03-26T01:25:02.378Z,6.23
2019-03-26T01:28:05.684Z,6.57
2019-03-26T01:31:08.988Z,17.80
2019-03-26T01:34:12.298Z,16.63
2019-03-26T01:37:15.608Z,6.90
2019-03-26T01:40:18.889Z,6.67
2019-03-26T01:43:22.205Z,5.87
2019-03-26T01:46:25.491Z,6.90
2019-03-26T01:49:28.786Z,6.33
2019-03-26T01:52:32.081Z,6.30
2019-03-26T01:55:35.378Z,7.10
2019-03-26T01:58:38.684Z,6.70
2019-03-26T02:01:41.977Z,7.03
2019-03-26T02:04:58.835Z,7.80
2019-03-26T02:07:50.307Z,7.30
2019-03-26T02:10:53.607Z,6.80
2019-03-26T02:13:56.903Z,7.03
2019-03-26T02:17:00.225Z,6.30
2019-03-26T02:20:05.055Z,6.20
2019-03-26T02:23:08.353Z,6.30
2019-03-26T02:26:11.662Z,6.47
2019-03-26T02:29:14.958Z,6.42
2019-03-26T02:32:18.248Z,6.17
2019-03-26T02:35:21.571Z,6.53
2019-03-26T02:38:24.864Z,7.00
2019-03-26T02:41:28.164Z,8.20
2019-03-26T02:44:31.462Z,6.33
2019-03-26T02:47:34.775Z,6.37
2019-03-26T02:50:38.066Z,6.05
2019-03-26T02:53:41.377Z,5.40
2019-03-26T02:56:44.679Z,6.03
2019-03-26T02:59:47.997Z,5.60
2019-03-26T03:02:51.292Z,5.60
2019-03-26T03:05:54.607Z,6.03
2019-03-26T03:08:57.908Z,6.17
2019-03-26T03:12:01.224Z,5.93
2019-03-26T03:15:05.865Z,5.80
2019-03-26T03:18:09.199Z,6.13
2019-03-26T03:21:12.520Z,6.03
2019-03-26T03:24:15.837Z,6.70
2019-03-26T03:27:19.133Z,5.70
2019-03-26T03:30:22.461Z,6.33
2019-03-26T03:33:25.774Z,6.30
2019-03-26T03:36:29.077Z,6.60
2019-03-26T03:39:32.423Z,6.47
2019-03-26T03:42:35.864Z,7.17
2019-03-26T03:45:39.171Z,7.30
2019-03-26T03:48:42.645Z,7.47
2019-03-26T03:51:45.943Z,7.50
2019-03-26T03:54:49.289Z,7.33
2019-03-26T03:57:53.189Z,7.27
2019-03-26T04:00:56.609Z,7.30
2019-03-26T04:03:59.948Z,7.37
2019-03-26T04:07:03.288Z,8.30
2019-03-26T04:10:06.625Z,8.43
2019-03-26T04:13:09.933Z,8.73
2019-03-26T04:16:13.244Z,9.63
2019-03-26T04:19:16.565Z,9.57
2019-03-26T04:22:19.872Z,10.10
2019-03-26T04:25:23.212Z,10.57
2019-03-26T04:28:26.501Z,9.80
2019-03-26T04:31:29.819Z,11.43
2019-03-26T04:34:33.165Z,11.30
2019-03-26T04:37:36.500Z,11.53
2019-03-26T04:40:39.818Z,11.10
2019-03-26T04:43:43.125Z,12.10
2019-03-26T04:46:46.498Z,11.50
2019-03-26T04:49:49.783Z,11.47
2019-03-26T04:52:53.097Z,11.60
2019-03-26T04:55:56.390Z,11.80
2019-03-26T04:58:59.877Z,11.57
2019-03-26T05:02:03.197Z,12.93
2019-03-26T05:05:06.591Z,12.93
2019-03-26T05:08:09.909Z,14.43
2019-03-26T05:11:13.226Z,16.00
2019-03-26T05:14:16.548Z,15.10
2019-03-26T05:17:20.044Z,17.77
2019-03-26T05:20:23.369Z,15.37
2019-03-26T05:23:26.674Z,16.23
2019-03-26T05:26:29.969Z,14.37
2019-03-26T05:29:33.358Z,15.30
2019-03-26T05:32:36.765Z,15.67
2019-03-26T05:35:40.082Z,14.73
2019-03-26T05:38:43.394Z,13.90
2019-03-26T05:41:46.713Z,14.57
2019-03-26T05:44:50.056Z,14.20
2019-03-26T05:47:53.413Z,13.03
2019-03-26T05:50:56.743Z,12.93
2019-03-26T05:54:00.051Z,13.10
2019-03-26T05:57:03.358Z,13.80
2019-03-26T06:00:12.989Z,13.47
2019-03-26T06:03:16.315Z,13.60
2019-03-26T06:06:19.612Z,13.80
2019-03-26T06:09:22.928Z,13.37
2019-03-26T06:12:26.244Z,13.57
2019-03-26T06:15:29.570Z,13.70
2019-03-26T06:18:32.916Z,12.70
2019-03-26T06:21:36.175Z,13.10
2019-03-26T06:24:39.489Z,13.43
2019-03-26T06:27:42.823Z,13.13
2019-03-26T06:30:46.143Z,12.93
2019-03-26T06:33:49.457Z,13.80
2019-03-26T06:36:52.750Z,14.17
2019-03-26T06:39:58.380Z,15.60
2019-03-26T06:43:01.132Z,15.03
2019-03-26T06:46:04.431Z,15.90
2019-03-26T06:49:07.809Z,17.33
2019-03-26T06:52:11.148Z,18.47
2019-03-26T06:55:14.635Z,17.67
2019-03-26T06:58:17.947Z,17.10
2019-03-26T07:01:21.259Z,15.87
2019-03-26T07:04:24.595Z,16.30
2019-03-26T07:07:31.854Z,14.67
2019-03-26T07:10:32.920Z,15.97
2019-03-26T07:13:36.228Z,14.17
2019-03-26T07:16:39.577Z,14.57
2019-03-26T07:19:42.946Z,16.07
2019-03-26T07:22:46.270Z,14.30
2019-03-26T07:25:49.579Z,15.13
2019-03-26T07:28:52.878Z,15.73
2019-03-26T07:31:56.212Z,14.53
2019-03-26T07:34:59.519Z,13.77
2019-03-26T07:38:02.823Z,13.50
2019-03-26T07:41:06.134Z,13.53
2019-03-26T07:44:09.433Z,12.17
2019-03-26T07:47:12.754Z,11.30
2019-03-26T07:50:16.089Z,10.67
2019-03-26T07:53:19.384Z,9.40
2019-03-26T07:56:22.693Z,7.93
2019-03-26T07:59:25.995Z,5.87
2019-03-26T08:02:29.322Z,6.13
2019-03-26T08:05:32.647Z,4.87
2019-03-26T08:08:35.948Z,3.70
2019-03-26T08:11:39.257Z,2.90
2019-03-26T08:14:42.583Z,3.20
2019-03-26T08:17:45.888Z,2.67
2019-03-26T08:20:49.227Z,3.67
2019-03-26T08:23:52.521Z,3.33
2019-03-26T08:26:55.847Z,3.17
2019-03-26T08:29:59.164Z,3.60
2019-03-26T08:33:02.480Z,2.83
2019-03-26T08:36:05.855Z,3.17
2019-03-26T08:39:09.162Z,2.93
2019-03-26T08:42:12.498Z,3.07
2019-03-26T08:45:16.086Z,3.20
2019-03-26T08:48:19.398Z,3.27
2019-03-26T08:51:22.707Z,3.15
2019-03-26T08:54:26.014Z,3.80
2019-03-26T08:57:29.328Z,2.77
2019-03-26T09:00:32.713Z,3.47
2019-03-26T09:03:35.939Z,3.17
2019-03-26T09:06:39.430Z,2.92
2019-03-26T09:09:42.740Z,2.87
2019-03-26T09:12:46.071Z,2.40
2019-03-26T09:15:49.349Z,2.65
2019-03-26T09:18:52.670Z,2.40
2019-03-26T09:21:55.986Z,2.60
2019-03-26T09:24:59.285Z,2.73
2019-03-26T09:28:02.595Z,2.87
2019-03-26T09:31:05.907Z,2.60
2019-03-26T09:34:10.032Z,2.72
2019-03-26T09:37:13.517Z,3.17
2019-03-26T09:40:16.823Z,3.05
2019-03-26T09:43:20.126Z,2.67
2019-03-26T09:46:23.433Z,2.87
2019-03-26T09:49:26.747Z,2.37
2019-03-26T09:52:30.064Z,2.75
2019-03-26T09:55:33.383Z,2.62
2019-03-26T09:58:36.699Z,2.35
2019-03-26T10:01:40.004Z,2.90
2019-03-26T10:04:43.354Z,3.05
2019-03-26T10:07:46.645Z,3.25
2019-03-26T10:10:49.934Z,3.20
2019-03-26T10:13:54.527Z,3.22
2019-03-26T10:16:57.781Z,2.83
2019-03-26T10:20:01.162Z,2.60
2019-03-26T10:23:04.482Z,2.70
2019-03-26T10:26:07.803Z,2.95
2019-03-26T10:29:28.883Z,2.85
2019-03-26T10:32:16.128Z,3.85
2019-03-26T10:35:19.434Z,3.00
2019-03-26T10:38:22.753Z,3.20
2019-03-26T10:41:26.049Z,2.95
2019-03-26T10:44:29.391Z,2.50
2019-03-26T10:47:32.702Z,2.92
2019-03-26T10:50:36.028Z,3.02
2019-03-26T10:53:39.340Z,3.12
2019-03-26T10:56:42.644Z,3.12
2019-03-26T10:59:45.975Z,2.85
2019-03-26T11:02:49.268Z,3.05
2019-03-26T11:05:52.593Z,3.83
2019-03-26T11:08:55.925Z,4.03
2019-03-26T11:11:59.207Z,2.52
2019-03-26T11:15:02.864Z,2.60
2019-03-26T11:18:06.165Z,4.08
2019-03-26T11:21:09.473Z,3.35
2019-03-26T11:24:12.801Z,2.47
2019-03-26T11:27:16.095Z,2.58
2019-03-26T11:30:19.473Z,2.55
2019-03-26T11:33:22.850Z,2.75
2019-03-26T11:36:26.159Z,2.10
2019-03-26T11:39:32.919Z,2.50
2019-03-26T11:42:34.479Z,2.45
2019-03-26T11:45:37.777Z,2.55
2019-03-26T11:48:41.074Z,2.58
2019-03-26T11:51:44.401Z,2.77
2019-03-26T11:54:47.690Z,2.67
2019-03-26T11:57:51.013Z,3.17
2019-03-26T12:00:54.314Z,2.33
2019-03-26T12:03:57.625Z,2.87
2019-03-26T12:07:00.922Z,2.70
2019-03-26T12:10:06.459Z,2.27
2019-03-26T12:13:09.760Z,2.30
2019-03-26T12:16:13.055Z,2.12
2019-03-26T12:19:16.362Z,2.50
2019-03-26T12:22:19.662Z,2.45
2019-03-26T12:25:22.985Z,2.45
2019-03-26T12:28:26.314Z,2.27
2019-03-26T12:31:29.652Z,2.20
2019-03-26T12:34:32.950Z,2.58
2019-03-26T12:37:36.271Z,2.30
2019-03-26T12:40:39.579Z,2.50
2019-03-26T12:43:42.895Z,2.47
2019-03-26T12:46:46.208Z,2.05
2019-03-26T12:49:49.536Z,2.33
2019-03-26T12:52:52.849Z,2.58
2019-03-26T12:55:56.161Z,2.77
2019-03-26T12:58:59.472Z,2.75
2019-03-26T13:02:02.772Z,2.80
2019-03-26T13:05:07.176Z,2.45
2019-03-26T13:08:10.498Z,2.37
2019-03-26T13:11:16.907Z,2.02
2019-03-26T13:14:18.818Z,2.55
2019-03-26T13:17:22.124Z,1.80
2019-03-26T13:20:25.441Z,2.40
2019-03-26T13:23:28.835Z,2.17
2019-03-26T13:26:32.138Z,2.05
2019-03-26T13:29:35.457Z,2.12
2019-03-26T13:32:38.964Z,2.30
2019-03-26T13:35:42.285Z,2.35
2019-03-26T13:38:45.598Z,2.30
2019-03-26T13:41:48.910Z,2.00
2019-03-26T13:44:52.235Z,1.90
2019-03-26T13:47:55.533Z,2.22
2019-03-26T13:50:58.855Z,2.10
2019-03-26T13:54:02.269Z,2.05
2019-03-26T13:57:05.573Z,2.42
2019-03-26T14:00:09.030Z,1.70
2019-03-26T14:03:12.341Z,1.92
2019-03-26T14:06:15.669Z,2.08
2019-03-26T14:09:19.000Z,2.17
2019-03-26T14:12:22.371Z,1.87
2019-03-26T14:15:25.678Z,1.92
2019-03-26T14:18:28.999Z,2.50
2019-03-26T14:21:32.293Z,2.15
2019-03-26T14:24:35.598Z,2.42
2019-03-26T14:27:38.925Z,2.47
2019-03-26T14:30:43.130Z,2.00
2019-03-26T14:33:46.409Z,2.40
2019-03-26T14:36:49.738Z,2.37
2019-03-26T14:39:54.573Z,2.08
2019-03-26T14:42:57.958Z,2.12
2019-03-26T14:46:01.336Z,1.85
2019-03-26T14:49:04.650Z,2.77
2019-03-26T14:52:08.154Z,2.60
2019-03-26T14:55:11.475Z,2.70
2019-03-26T14:58:14.766Z,2.52
2019-03-26T15:01:18.082Z,2.62
2019-03-26T15:04:40.802Z,2.42
2019-03-26T15:07:44.167Z,2.60
2019-03-26T15:10:52.627Z,2.70
2019-03-26T15:13:56.133Z,2.35
2019-03-26T15:16:59.430Z,2.95
2019-03-26T15:20:02.985Z,2.10
2019-03-26T15:23:06.345Z,2.45
2019-03-26T15:26:09.613Z,2.50
2019-03-26T15:29:12.921Z,2.52
2019-03-26T15:32:16.235Z,3.15
2019-03-26T15:35:19.518Z,2.90
2019-03-26T15:38:23.156Z,3.08
2019-03-26T15:41:26.476Z,3.08
2019-03-26T15:44:29.767Z,2.42
2019-03-26T15:47:33.073Z,2.83
2019-03-26T15:50:44.664Z,3.02
2019-03-26T15:53:48.042Z,2.62
2019-03-26T15:56:51.379Z,3.65
2019-03-26T15:59:54.672Z,2.92
2019-03-26T16:02:58.059Z,2.87
2019-03-26T16:06:01.470Z,3.05
2019-03-26T16:09:07.600Z,3.62
2019-03-26T16:12:10.997Z,3.30
2019-03-26T16:15:14.286Z,2.65
2019-03-26T16:18:17.584Z,2.75
2019-03-26T16:21:20.901Z,2.52
2019-03-26T16:24:24.182Z,2.65
2019-03-26T16:27:27.504Z,2.95
2019-03-26T16:30:32.961Z,2.95
2019-03-26T16:33:35.845Z,2.67
2019-03-26T16:36:39.179Z,2.60
2019-03-26T16:39:42.528Z,2.50
2019-03-26T16:42:45.846Z,2.55
2019-03-26T16:45:49.130Z,2.60
2019-03-26T16:48:52.469Z,3.22
2019-03-26T16:51:55.784Z,3.20
2019-03-26T16:54:59.071Z,3.27
2019-03-26T16:58:02.376Z,3.65
2019-03-26T17:01:07.264Z,3.92
2019-03-26T17:04:10.491Z,4.27
2019-03-26T17:07:13.808Z,4.62
2019-03-26T17:10:17.140Z,3.98
2019-03-26T17:13:20.468Z,4.35
2019-03-26T17:16:23.757Z,4.62
2019-03-26T17:19:27.084Z,3.75
2019-03-26T17:22:30.406Z,4.20
2019-03-26T17:25:33.689Z,3.85
2019-03-26T17:28:37.025Z,4.20
2019-03-26T17:31:40.326Z,3.90
2019-03-26T17:34:43.649Z,4.07
2019-03-26T17:37:58.876Z,5.00
2019-03-26T17:40:51.999Z,4.35
2019-03-26T17:43:55.318Z,3.75
2019-03-26T17:46:58.606Z,3.90
2019-03-26T17:50:02.022Z,3.95
2019-03-26T17:53:05.307Z,3.62
2019-03-26T17:56:08.612Z,4.37
2019-03-26T17:59:11.972Z,3.83
2019-03-26T18:02:15.351Z,3.60
2019-03-26T18:05:24.429Z,4.05
2019-03-26T18:08:27.799Z,3.75
2019-03-26T18:11:31.128Z,3.58
2019-03-26T18:14:34.516Z,3.77
2019-03-26T18:17:37.863Z,4.20
2019-03-26T18:20:42.795Z,3.92
2019-03-26T18:23:46.099Z,4.37
2019-03-26T18:26:49.471Z,4.90
2019-03-26T18:29:52.800Z,4.78
2019-03-26T18:32:56.100Z,5.40
2019-03-26T18:35:59.479Z,6.28
2019-03-26T18:39:04.628Z,6.43
2019-03-26T18:42:07.934Z,7.10
2019-03-26T18:45:11.286Z,7.67
2019-03-26T18:48:14.601Z,7.03
2019-03-26T18:51:17.917Z,7.70
2019-03-26T18:54:21.244Z,8.25
2019-03-26T18:57:24.532Z,7.60
2019-03-26T19:00:34.811Z,7.42
2019-03-26T19:03:38.134Z,7.37
2019-03-26T19:06:41.432Z,6.83
2019-03-26T19:09:45.613Z,6.05
2019-03-26T19:12:56.855Z,5.87
2019-03-26T19:15:54.037Z,6.30
2019-03-26T19:18:57.366Z,6.03
2019-03-26T19:22:00.927Z,5.77
2019-03-26T19:25:05.607Z,5.42
2019-03-26T19:28:09.016Z,5.62
2019-03-26T19:31:12.454Z,5.70
2019-03-26T19:34:15.848Z,5.53
2019-03-26T19:37:19.158Z,5.73
2019-03-26T19:40:22.469Z,5.67
2019-03-26T19:43:25.802Z,5.95
2019-03-26T19:46:29.109Z,6.20
2019-03-26T19:49:32.516Z,6.55
2019-03-26T19:52:35.849Z,6.30
2019-03-26T19:55:39.186Z,6.00
2019-03-26T19:58:44.474Z,5.92
2019-03-26T20:01:47.878Z,5.47
2019-03-26T20:04:51.217Z,5.87
2019-03-26T20:07:54.548Z,5.95
2019-03-26T20:10:57.859Z,5.75
2019-03-26T20:14:01.163Z,5.90
2019-03-26T20:17:04.497Z,6.12
2019-03-26T20:20:07.858Z,5.47
2019-03-26T20:23:11.183Z,5.30
2019-03-26T20:26:14.568Z,5.37
2019-03-26T20:29:17.861Z,5.60
2019-03-26T20:32:21.164Z,5.12
2019-03-26T20:35:24.455Z,4.83
2019-03-26T20:38:27.803Z,4.33
2019-03-26T20:41:31.106Z,4.78
2019-03-26T20:44:34.427Z,4.05
2019-03-26T20:47:37.736Z,3.92
2019-03-26T20:50:41.077Z,4.12
2019-03-26T20:53:44.462Z,4.58
2019-03-26T20:56:47.783Z,4.72
2019-03-26T20:59:51.118Z,4.62
2019-03-26T21:02:54.451Z,5.08
2019-03-26T21:05:57.804Z,5.17
2019-03-26T21:09:01.157Z,4.97
2019-03-26T21:12:04.526Z,5.20
2019-03-26T21:15:09.537Z,5.55
2019-03-26T21:18:12.863Z,5.57
2019-03-26T21:21:16.182Z,6.00
2019-03-26T21:24:19.525Z,5.45
2019-03-26T21:27:22.869Z,5.55
2019-03-26T21:30:27.943Z,5.35
2019-03-26T21:33:31.263Z,5.80
2019-03-26T21:36:34.592Z,5.35
2019-03-26T21:39:42.337Z,5.50
2019-03-26T21:42:45.647Z,4.85
2019-03-26T21:45:48.990Z,4.28
2019-03-26T21:48:52.327Z,4.97
2019-03-26T21:51:55.650Z,4.60
2019-03-26T21:54:58.971Z,4.33
2019-03-26T21:58:02.307Z,3.80
2019-03-26T22:01:05.611Z,4.62
2019-03-26T22:04:08.951Z,4.72
2019-03-26T22:07:12.272Z,4.12
2019-03-26T22:10:16.471Z,4.60
2019-03-26T22:13:19.805Z,4.30
2019-03-26T22:16:23.129Z,5.08
2019-03-26T22:19:28.763Z,4.90
2019-03-26T22:22:31.479Z,4.45
2019-03-26T22:25:34.787Z,5.05
2019-03-26T22:28:38.106Z,4.33
2019-03-26T22:31:41.409Z,4.75
2019-03-26T22:34:44.731Z,5.60
2019-03-26T22:37:48.063Z,5.50
2019-03-26T22:40:51.379Z,5.03
2019-03-26T22:43:55.254Z,4.28
2019-03-26T22:46:58.713Z,4.40
2019-03-26T22:50:02.034Z,4.30
2019-03-26T22:53:05.385Z,3.97
2019-03-26T22:56:08.708Z,3.70
2019-03-26T22:59:12.047Z,3.58
2019-03-26T23:02:15.394Z,2.77
2019-03-26T23:05:18.786Z,2.80
2019-03-26T23:08:22.095Z,4.35
2019-03-26T23:11:25.375Z,3.10
2019-03-26T23:14:28.696Z,2.72
2019-03-26T23:17:32.001Z,3.20
2019-03-26T23:20:35.328Z,2.90
2019-03-26T23:23:38.641Z,3.67
2019-03-26T23:26:41.984Z,3.12
2019-03-26T23:29:45.283Z,2.70
2019-03-26T23:32:48.624Z,3.10
2019-03-26T23:35:51.937Z,2.90
2019-03-26T23:38:55.263Z,3.40
2019-03-26T23:41:58.726Z,3.37
2019-03-26T23:45:02.074Z,3.60
2019-03-26T23:48:05.359Z,4.17
2019-03-26T23:51:08.677Z,3.93
2019-03-26T23:54:12.022Z,4.58
2019-03-26T23:57:15.320Z,4.15
